Latest Coastal Weather Observations for Wyndham Airport

IDD60701

Issued at 8:11 pm CST Wednesday 1 April 2015 (issued every 10 minutes, with the page automatically refreshed every 10 minutes)

About coastal observations | Map of coastal stations | Coastal observations for NT | Marine services | Other Formats
Station Details ID: 001006 Name: WYNDHAM AERO Lat: -15.51 Lon: 128.15 Height: 3.8 m
Data from the previous 72 hours. | See also: Recent months for locations in Northern Territory
Date/Time
CST
Temp

°C
Wind Pressure Rain
since 9am
mm
Weather Cloud Vis
km
Sea
Height
m
Swell
Dir
 
Speed
knots
Gust
knots
hPa Trend Height
m
Period
s
Dir
01/08:00pm 33.4 N 9 12 1008.1 - 0.0 - - - - - - -
01/07:30pm 34.2 N 8 11 1007.8 - 0.0 - - - - - - -
01/07:00pm 34.7 N 9 12 1007.3 - 0.0 - - - - - - -
01/06:30pm 35.7 N 8 11 1006.9 - 0.0 - - - - - - -
01/06:00pm 36.5 NNW 9 12 1006.9 - 0.0 - - - - - - -
01/05:30pm 37.4 N 12 16 1006.7 - 0.0 - - - - - - -
01/05:09pm 37.3 NNW 10 19 1006.6 - 0.0 - - - - - - -
01/05:00pm 38.7 NW 5 7 1006.7 - 0.0 - - - - - - -
01/04:30pm 38.9 NE 6 10 1006.9 - 0.0 - - - - - - -
01/04:00pm 38.7 N 5 10 1007.2 - 0.0 - - - - - - -
01/03:30pm 38.6 NNW 7 13 1007.4 - 0.0 - - - - - - -
01/03:00pm 37.1 N 8 11 1007.8 - 0.0 - - - - - - -
01/02:30pm 38.4 W 5 11 1008.1 - 0.0 - - - - - - -
01/02:00pm 38.4 W 7 14 1008.6 - 0.0 - - - - - - -
01/01:30pm 37.3 WNW 5 9 1009.1 - 0.0 - - - - - - -
01/01:00pm 38.1 NW 9 12 1009.6 - 0.0 - - - - - - -
01/12:30pm 36.5 W 5 10 1010.3 - 0.0 - - - - - - -
01/12:00pm 36.6 WSW 3 6 1010.9 - 0.0 - - - - - - -
01/11:30am 35.3 SSW 5 7 1011.6 - 0.0 - - - - - - -
01/11:00am 35.0 SSW 5 7 1012.0 - 0.0 - - - - - - -
01/10:30am 34.5 SW 3 7 1012.2 - 0.0 - - - - - - -
01/10:00am 33.4 WSW 4 6 1012.4 - 0.0 - - - - - - -
01/09:30am 32.7 W 2 6 1012.4 - 0.0 - - - - - - -
01/09:00am 31.9 WNW 3 5 1012.3 - 0.0 - - - - - - -
01/08:30am 31.2 SW 3 5 1012.1 - 0.0 - - - - - - -
01/08:00am 30.5 SW 5 7 1011.8 - 0.0 - - - - - - -
01/07:30am 28.8 CALM 0 0 1011.5 - 0.0 - - - - - - -
01/07:00am 28.6 CALM 0 0 1011.2 - 0.0 - - - - - - -
01/06:30am 28.5 CALM 0 0 1010.8 - 0.0 - - - - - - -
01/06:00am 29.5 CALM 0 0 1010.6 - 0.0 - - - - - - -
01/05:30am 29.4 CALM 0 0 1010.5 - 0.0 - - - - - - -
01/05:00am 29.4 N 1 3 1010.3 - 0.0 - - - - - - -
01/04:30am 28.9 NNW 4 4 1010.3 - 0.0 - - - - - - -
01/04:00am 28.2 CALM 0 4 1010.4 - 0.0 - - - - - - -
01/03:30am 28.5 SE 3 4 1010.4 - 0.0 - - - - - - -
01/03:00am 28.7 ESE 4 6 1010.4 - 0.0 - - - - - - -
01/02:30am 28.2 E 5 7 1010.4 - 0.0 - - - - - - -
01/02:00am 28.6 E 5 6 1010.7 - 0.0 - - - - - - -
01/01:30am 29.0 E 3 4 1011.0 - 0.0 - - - - - - -
01/01:00am 28.8 ENE 3 4 1011.3 - 0.0 - - - - - - -
01/12:30am 29.2 CALM 0 0 1011.4 - 0.0 - - - - - - -
01/12:00am 29.8 CALM 0 0 1011.5 - 0.0 - - - - - - -
 
Date/Time
CST
Temp

°C
Wind Pressure Rain
since 9am
mm
Weather Cloud Vis
km
Sea
Height
m
Swell
Dir
 
Speed
knots
Gust
knots
hPa Trend Height
m
Period
s
Dir
31/11:30pm 30.1 ENE 3 4 1011.5 - 0.0 - - - - - - -
31/11:00pm 31.1 SW 1 4 1011.6 - 0.0 - - - - - - -
31/10:30pm 31.4 CALM 0 0 1011.5 - 0.0 - - - - - - -
31/10:00pm 31.7 CALM 0 0 1011.5 - 0.0 - - - - - - -
31/09:30pm 32.1 NW 4 5 1011.4 - 0.0 - - - - - - -
31/09:00pm 32.4 NW 4 6 1011.1 - 0.0 - - - - - - -
31/08:30pm 32.6 NNW 7 8 1010.7 - 0.0 - - - - - - -
31/08:00pm 33.2 NW 5 8 1010.4 - 0.0 - - - - - - -
31/07:30pm 33.4 NNW 7 9 1010.1 - 0.0 - - - - - - -
31/07:00pm 34.0 N 8 10 1009.8 - 0.0 - - - - - - -
31/06:30pm 34.8 NNW 11 14 1009.2 - 0.0 - - - - - - -
31/06:00pm 35.8 N 7 12 1009.0 - 0.0 - - - - - - -
31/05:30pm 37.8 NE 9 11 1008.9 - 0.0 - - - - - - -
31/05:00pm 38.1 NE 9 16 1008.9 - 0.0 - - - - - - -
31/04:30pm 38.2 NE 7 15 1008.9 - 0.0 - - - - - - -
31/04:00pm 38.4 NE 9 14 1008.7 - 0.0 - - - - - - -
31/03:30pm 38.2 ENE 10 15 1009.0 - 0.0 - - - - - - -
31/03:00pm 38.2 ENE 10 14 1009.4 - 0.0 - - - - - - -
31/02:30pm 38.7 NE 11 14 1009.7 - 0.0 - - - - - - -
31/02:00pm 38.2 NE 11 17 1010.1 - 0.0 - - - - - - -
31/01:30pm 36.8 ENE 10 16 1010.6 - 0.0 - - - - - - -
31/01:00pm 37.0 ENE 9 15 1011.3 - 0.0 - - - - - - -
31/12:30pm 37.1 NE 8 15 1011.9 - 0.0 - - - - - - -
31/12:00pm 36.7 ENE 10 14 1012.5 - 0.0 - - - - - - -
31/11:30am 35.8 NE 8 11 1012.9 - 0.0 - - - - - - -
31/11:00am 35.2 ENE 8 13 1013.3 - 0.0 - - - - - - -
31/10:30am 34.7 NE 7 11 1013.4 - 0.0 - - - - - - -
31/10:00am 34.2 E 5 9 1013.5 - 0.0 - - - - - - -
31/09:30am 32.5 SE 6 8 1013.5 - 0.0 - - - - - - -
31/09:00am 31.1 S 4 5 1013.5 - 0.0 - - - - - - -
31/08:30am 30.0 CALM 0 0 1013.2 - 0.0 - - - - - - -
31/08:00am 28.4 CALM 0 0 1012.8 - 0.0 - - - - - - -
31/07:30am 26.2 CALM 0 0 1012.5 - 0.0 - - - - - - -
31/07:00am 25.7 CALM 0 0 1012.1 - 0.0 - - - - - - -
31/06:30am 25.8 CALM 0 0 1011.8 - 0.0 - - - - - - -
31/06:00am 26.1 CALM 0 0 1011.6 - 0.0 - - - - - - -
31/05:30am 26.3 CALM 0 0 1011.2 - 0.0 - - - - - - -
31/05:00am 26.9 ENE 3 3 1011.1 - 0.0 - - - - - - -
31/04:30am 26.4 NNE 1 5 1010.9 - 0.0 - - - - - - -
31/04:00am 26.6 NE 3 5 1010.9 - 0.0 - - - - - - -
31/03:30am 26.6 E 4 5 1011.0 - 0.0 - - - - - - -
31/03:00am 26.9 ESE 6 6 1011.1 - 0.0 - - - - - - -
31/02:30am 27.1 E 5 6 1011.1 - 0.0 - - - - - - -
31/02:00am 27.4 E 5 6 1011.3 - 0.0 - - - - - - -
31/01:30am 27.6 E 5 6 1011.5 - 0.0 - - - - - - -
31/01:00am 28.0 CALM 0 3 1011.9 - 0.0 - - - - - - -
31/12:30am 28.4 CALM 0 0 1012.2 - 0.0 - - - - - - -
31/12:00am 28.7 CALM 0 0 1012.3 - 0.0 - - - - - - -
 
Date/Time
CST
Temp

°C
Wind Pressure Rain
since 9am
mm
Weather Cloud Vis
km
Sea
Height
m
Swell
Dir
 
Speed
knots
Gust
knots
hPa Trend Height
m
Period
s
Dir
30/11:30pm 28.2 CALM 0 0 1012.6 - 0.0 - - - - - - -
30/11:00pm 29.1 CALM 0 1 1012.6 - 0.0 - - - - - - -
30/10:30pm 29.7 CALM 0 0 1012.7 - 0.0 - - - - - - -
30/10:00pm 30.8 NW 2 3 1012.6 - 0.0 - - - - - - -
30/09:30pm 31.9 WNW 3 4 1012.3 - 0.0 - - - - - - -
30/09:00pm 31.7 N 4 5 1011.9 - 0.0 - - - - - - -
30/08:30pm 32.4 N 6 8 1011.5 - 0.0 - - - - - - -
30/08:00pm 32.9 NW 4 5 1011.2 - 0.0 - - - - - - -
30/07:30pm 32.9 NNW 5 8 1010.8 - 0.0 - - - - - - -
30/07:00pm 33.6 NNW 6 9 1010.4 - 0.0 - - - - - - -
30/06:30pm 34.7 NNW 9 11 1010.2 - 0.0 - - - - - - -
30/06:00pm 35.7 N 9 14 1009.8 - 0.0 - - - - - - -
30/05:30pm 35.3 NNW 12 16 1009.6 - 0.0 - - - - - - -
30/05:00pm 36.9 NNW 11 16 1009.5 - 0.0 - - - - - - -
30/04:30pm 36.8 NNW 12 16 1009.4 - 0.0 - - - - - - -
30/04:00pm 36.7 NNW 11 15 1009.7 - 0.0 - - - - - - -
30/03:30pm 36.5 NNW 10 13 1009.7 - 0.0 - - - - - - -
30/03:00pm 38.1 NE 9 14 1010.1 - 0.0 - - - - - - -
30/02:30pm 36.6 NNE 10 15 1010.5 - 0.0 - - - - - - -
30/02:00pm 37.4 NE 9 14 1010.8 - 0.0 - - - - - - -
30/01:30pm 36.5 ENE 7 12 1011.1 - 0.0 - - - - - - -
30/01:00pm 37.1 NNE 9 14 1011.5 - 0.0 - - - - - - -
30/12:30pm 35.8 E 9 15 1011.9 - 0.0 - - - - - - -
30/12:00pm 35.9 NE 6 10 1012.5 - 0.0 - - - - - - -
30/11:30am 35.6 NE 6 10 1012.9 - 0.0 - - - - - - -
30/11:00am 35.8 ENE 5 11 1013.2 - 0.0 - - - - - - -
30/10:30am 33.8 SSW 2 6 1013.2 - 0.0 - - - - - - -
30/10:00am 32.2 SW 1 5 1013.2 - 0.0 - - - - - - -
30/09:30am 30.7 W 3 5 1013.2 - 0.0 - - - - - - -
30/09:00am 29.7 WSW 4 5 1013.2 - 0.0 - - - - - - -
30/08:30am 28.9 SW 4 5 1012.9 - 0.0 - - - - - - -
30/08:00am 27.7 W 4 4 1012.7 - 0.0 - - - - - - -
30/07:30am 26.3 WNW 3 4 1012.4 - 0.0 - - - - - - -
30/07:00am 25.6 NNW 2 4 1012.2 - 0.0 - - - - - - -
30/06:30am 25.6 CALM 0 0 1011.6 - 0.0 - - - - - - -
30/06:00am 25.6 CALM 0 0 1011.2 - 0.0 - - - - - - -
30/05:30am 26.0 CALM 0 0 1010.9 - 0.0 - - - - - - -
30/05:00am 25.9 CALM 0 0 1010.8 - 0.0 - - - - - - -
30/04:30am 26.4 CALM 0 0 1010.4 - 0.0 - - - - - - -
30/04:00am 26.4 ENE 2 4 1010.5 - 0.0 - - - - - - -
30/03:30am 26.7 ESE 5 5 1010.5 - 0.0 - - - - - - -
30/03:00am 26.4 E 4 5 1010.7 - 0.0 - - - - - - -
30/02:30am 27.1 E 6 7 1010.7 - 0.0 - - - - - - -
30/02:00am 27.4 ESE 8 9 1010.9 - 0.0 - - - - - - -
30/01:30am 26.9 E 4 5 1011.1 - 0.0 - - - - - - -
30/01:00am 27.4 ESE 7 8 1011.5 - 0.0 - - - - - - -
30/12:30am 27.9 NE 6 7 1011.6 - 0.0 - - - - - - -
30/12:00am 27.8 E 5 6 1011.9 - 0.0 - - - - - - -
 
Date/Time
CST
Temp

°C
Wind Pressure Rain
since 9am
mm
Weather Cloud Vis
km
Sea
Height
m
Swell
Dir
 
Speed
knots
Gust
knots
hPa Trend Height
m
Period
s
Dir
29/11:30pm 28.4 E 1 5 1011.9 - 0.0 - - - - - - -
29/11:00pm 28.8 CALM 0 0 1012.1 - 0.0 - - - - - - -
29/10:30pm 29.1 CALM 0 0 1012.3 - 0.0 - - - - - - -
29/10:00pm 30.3 CALM 0 0 1012.3 - 0.0 - - - - - - -

Other Formats:

Comma delimited format used in spreadsheet applications
http://www.bom.gov.au/fwo/IDD60701/IDD60701.95214.axf

JavaScript Object Notation format (JSON) in row-major order
http://www.bom.gov.au/fwo/IDD60701/IDD60701.95214.json